sensor_id;sensor_type;location;lat;lon;timestamp;pressure;altitude;pressure_sealevel;temperature
71205;BMP180;58935;54.498;18.544;2023-07-29T00:00:43;99761.80;;;15.10
71205;BMP180;58935;54.498;18.544;2023-07-29T00:03:09;99765.00;;;15.10
71205;BMP180;58935;54.498;18.544;2023-07-29T00:05:36;99764.00;;;15.04
71205;BMP180;58935;54.498;18.544;2023-07-29T00:08:02;99759.80;;;15.00
71205;BMP180;58935;54.498;18.544;2023-07-29T00:10:28;99759.60;;;15.00
71205;BMP180;58935;54.498;18.544;2023-07-29T00:12:54;99755.60;;;15.00
71205;BMP180;58935;54.498;18.544;2023-07-29T00:15:19;99753.00;;;15.00
71205;BMP180;58935;54.498;18.544;2023-07-29T00:17:45;99750.40;;;15.00
71205;BMP180;58935;54.498;18.544;2023-07-29T00:20:11;99752.40;;;15.00
71205;BMP180;58935;54.498;18.544;2023-07-29T00:22:36;99750.20;;;15.00
71205;BMP180;58935;54.498;18.544;2023-07-29T00:25:48;99750.00;;;15.00
71205;BMP180;58935;54.498;18.544;2023-07-29T00:28:13;99752.00;;;15.00
71205;BMP180;58935;54.498;18.544;2023-07-29T00:30:39;99752.80;;;15.02
71205;BMP180;58935;54.498;18.544;2023-07-29T00:33:04;99754.20;;;15.08
71205;BMP180;58935;54.498;18.544;2023-07-29T00:35:30;99760.00;;;15.10
71205;BMP180;58935;54.498;18.544;2023-07-29T00:37:55;99757.00;;;15.10
71205;BMP180;58935;54.498;18.544;2023-07-29T00:40:22;99756.20;;;15.10
71205;BMP180;58935;54.498;18.544;2023-07-29T00:42:49;99762.60;;;15.10
71205;BMP180;58935;54.498;18.544;2023-07-29T00:45:16;99759.60;;;15.10
71205;BMP180;58935;54.498;18.544;2023-07-29T00:47:42;99757.00;;;15.10
71205;BMP180;58935;54.498;18.544;2023-07-29T00:50:13;99757.40;;;15.10
71205;BMP180;58935;54.498;18.544;2023-07-29T00:52:40;99758.40;;;15.12
71205;BMP180;58935;54.498;18.544;2023-07-29T00:55:07;99753.60;;;15.14
71205;BMP180;58935;54.498;18.544;2023-07-29T00:57:33;99752.00;;;15.14
71205;BMP180;58935;54.498;18.544;2023-07-29T01:00:00;99758.40;;;15.20
71205;BMP180;58935;54.498;18.544;2023-07-29T01:02:26;99754.00;;;15.20
71205;BMP180;58935;54.498;18.544;2023-07-29T01:04:57;99753.60;;;15.20
71205;BMP180;58935;54.498;18.544;2023-07-29T01:07:44;99759.00;;;15.20
71205;BMP180;58935;54.498;18.544;2023-07-29T01:10:34;99760.00;;;15.20
71205;BMP180;58935;54.498;18.544;2023-07-29T01:16:13;99760.80;;;15.20
71205;BMP180;58935;54.498;18.544;2023-07-29T01:18:43;99765.20;;;15.20
71205;BMP180;58935;54.498;18.544;2023-07-29T01:21:11;99763.40;;;15.22
71205;BMP180;58935;54.498;18.544;2023-07-29T01:23:37;99760.20;;;15.30
71205;BMP180;58935;54.498;18.544;2023-07-29T01:26:03;99760.00;;;15.30
71205;BMP180;58935;54.498;18.544;2023-07-29T01:28:30;99763.40;;;15.22
71205;BMP180;58935;54.498;18.544;2023-07-29T01:31:06;99765.40;;;15.20
71205;BMP180;58935;54.498;18.544;2023-07-29T01:33:44;99763.80;;;15.20
71205;BMP180;58935;54.498;18.544;2023-07-29T01:36:20;99769.60;;;15.20
71205;BMP180;58935;54.498;18.544;2023-07-29T01:38:48;99767.00;;;15.16
71205;BMP180;58935;54.498;18.544;2023-07-29T01:41:16;99764.80;;;15.10
71205;BMP180;58935;54.498;18.544;2023-07-29T01:43:43;99767.40;;;15.10
71205;BMP180;58935;54.498;18.544;2023-07-29T01:46:10;99763.20;;;15.10
71205;BMP180;58935;54.498;18.544;2023-07-29T01:48:37;99764.00;;;15.10
71205;BMP180;58935;54.498;18.544;2023-07-29T01:51:03;99769.80;;;15.10
71205;BMP180;58935;54.498;18.544;2023-07-29T01:53:29;99770.20;;;15.10
71205;BMP180;58935;54.498;18.544;2023-07-29T01:55:55;99769.40;;;15.10
71205;BMP180;58935;54.498;18.544;2023-07-29T01:58:22;99768.20;;;15.10
71205;BMP180;58935;54.498;18.544;2023-07-29T02:00:47;99764.60;;;15.10
71205;BMP180;58935;54.498;18.544;2023-07-29T02:03:13;99765.60;;;15.02
71205;BMP180;58935;54.498;18.544;2023-07-29T02:05:38;99768.60;;;15.00
71205;BMP180;58935;54.498;18.544;2023-07-29T02:08:03;99768.00;;;15.00
71205;BMP180;58935;54.498;18.544;2023-07-29T02:10:29;99765.80;;;15.00
71205;BMP180;58935;54.498;18.544;2023-07-29T02:12:54;99769.60;;;15.00
71205;BMP180;58935;54.498;18.544;2023-07-29T02:15:19;99770.40;;;15.00
71205;BMP180;58935;54.498;18.544;2023-07-29T02:17:45;99773.40;;;15.00
71205;BMP180;58935;54.498;18.544;2023-07-29T02:20:11;99775.00;;;15.00
71205;BMP180;58935;54.498;18.544;2023-07-29T02:22:36;99774.20;;;15.00
71205;BMP180;58935;54.498;18.544;2023-07-29T02:25:02;99772.80;;;15.00
71205;BMP180;58935;54.498;18.544;2023-07-29T02:27:28;99772.80;;;15.00
71205;BMP180;58935;54.498;18.544;2023-07-29T02:29:54;99778.80;;;15.00
71205;BMP180;58935;54.498;18.544;2023-07-29T02:32:20;99783.00;;;15.00
71205;BMP180;58935;54.498;18.544;2023-07-29T02:34:46;99782.00;;;14.98
71205;BMP180;58935;54.498;18.544;2023-07-29T02:37:11;99780.00;;;14.94
71205;BMP180;58935;54.498;18.544;2023-07-29T02:39:37;99786.80;;;14.92
71205;BMP180;58935;54.498;18.544;2023-07-29T02:42:03;99783.60;;;14.90
71205;BMP180;58935;54.498;18.544;2023-07-29T02:44:29;99789.00;;;14.90
71205;BMP180;58935;54.498;18.544;2023-07-29T02:46:54;99786.60;;;14.90
71205;BMP180;58935;54.498;18.544;2023-07-29T02:49:19;99790.00;;;14.90
71205;BMP180;58935;54.498;18.544;2023-07-29T02:51:45;99787.20;;;14.90
71205;BMP180;58935;54.498;18.544;2023-07-29T02:54:10;99787.00;;;14.90
71205;BMP180;58935;54.498;18.544;2023-07-29T02:56:35;99788.40;;;14.90
71205;BMP180;58935;54.498;18.544;2023-07-29T02:59:01;99786.20;;;14.90
71205;BMP180;58935;54.498;18.544;2023-07-29T03:01:27;99789.60;;;14.90
71205;BMP180;58935;54.498;18.544;2023-07-29T03:03:52;99787.80;;;14.90
71205;BMP180;58935;54.498;18.544;2023-07-29T03:06:18;99791.60;;;14.90
71205;BMP180;58935;54.498;18.544;2023-07-29T03:08:44;99792.00;;;14.90
71205;BMP180;58935;54.498;18.544;2023-07-29T03:11:14;99789.60;;;14.90
71205;BMP180;58935;54.498;18.544;2023-07-29T03:13:41;99796.80;;;14.90
71205;BMP180;58935;54.498;18.544;2023-07-29T03:16:12;99801.60;;;14.90
71205;BMP180;58935;54.498;18.544;2023-07-29T03:18:38;99805.40;;;14.90
71205;BMP180;58935;54.498;18.544;2023-07-29T03:21:04;99807.60;;;14.90
71205;BMP180;58935;54.498;18.544;2023-07-29T03:23:31;99805.60;;;14.90
71205;BMP180;58935;54.498;18.544;2023-07-29T03:25:58;99804.00;;;14.90
71205;BMP180;58935;54.498;18.544;2023-07-29T03:28:30;99806.40;;;14.90
71205;BMP180;58935;54.498;18.544;2023-07-29T03:30:56;99811.20;;;14.90
71205;BMP180;58935;54.498;18.544;2023-07-29T03:33:22;99814.20;;;14.90
71205;BMP180;58935;54.498;18.544;2023-07-29T03:35:48;99812.60;;;15.00
71205;BMP180;58935;54.498;18.544;2023-07-29T03:38:14;99807.40;;;15.00
71205;BMP180;58935;54.498;18.544;2023-07-29T03:40:41;99807.40;;;15.00
71205;BMP180;58935;54.498;18.544;2023-07-29T03:43:07;99808.40;;;15.06
71205;BMP180;58935;54.498;18.544;2023-07-29T03:45:34;99812.20;;;15.10
71205;BMP180;58935;54.498;18.544;2023-07-29T03:48:01;99815.00;;;15.10
71205;BMP180;58935;54.498;18.544;2023-07-29T03:50:28;99818.80;;;15.08
71205;BMP180;58935;54.498;18.544;2023-07-29T03:52:53;99826.80;;;15.04
71205;BMP180;58935;54.498;18.544;2023-07-29T03:55:18;99821.00;;;15.00
71205;BMP180;58935;54.498;18.544;2023-07-29T03:57:44;99825.00;;;15.00
71205;BMP180;58935;54.498;18.544;2023-07-29T04:00:10;99828.80;;;15.00
71205;BMP180;58935;54.498;18.544;2023-07-29T04:02:36;99829.80;;;15.00
71205;BMP180;58935;54.498;18.544;2023-07-29T04:05:04;99829.20;;;15.00
71205;BMP180;58935;54.498;18.544;2023-07-29T04:07:30;99829.20;;;15.00
71205;BMP180;58935;54.498;18.544;2023-07-29T04:09:56;99827.40;;;15.00
71205;BMP180;58935;54.498;18.544;2023-07-29T04:12:23;99834.20;;;15.00
71205;BMP180;58935;54.498;18.544;2023-07-29T04:14:49;99834.40;;;15.08
71205;BMP180;58935;54.498;18.544;2023-07-29T04:17:14;99832.00;;;15.10
71205;BMP180;58935;54.498;18.544;2023-07-29T04:19:40;99836.40;;;15.10
71205;BMP180;58935;54.498;18.544;2023-07-29T04:22:05;99838.40;;;15.20
71205;BMP180;58935;54.498;18.544;2023-07-29T04:24:30;99845.40;;;15.20
71205;BMP180;58935;54.498;18.544;2023-07-29T04:26:56;99839.60;;;15.20
71205;BMP180;58935;54.498;18.544;2023-07-29T04:29:21;99835.20;;;15.30
71205;BMP180;58935;54.498;18.544;2023-07-29T04:31:49;99837.40;;;15.30
71205;BMP180;58935;54.498;18.544;2023-07-29T04:34:15;99840.80;;;15.36
71205;BMP180;58935;54.498;18.544;2023-07-29T04:36:40;99845.00;;;15.40
71205;BMP180;58935;54.498;18.544;2023-07-29T04:39:06;99842.60;;;15.40
71205;BMP180;58935;54.498;18.544;2023-07-29T04:41:31;99847.60;;;15.50
71205;BMP180;58935;54.498;18.544;2023-07-29T04:43:56;99843.80;;;15.50
71205;BMP180;58935;54.498;18.544;2023-07-29T04:46:22;99839.80;;;15.60
71205;BMP180;58935;54.498;18.544;2023-07-29T04:48:47;99842.20;;;15.60
71205;BMP180;58935;54.498;18.544;2023-07-29T04:51:12;99836.80;;;15.60
71205;BMP180;58935;54.498;18.544;2023-07-29T04:53:37;99836.80;;;15.70
71205;BMP180;58935;54.498;18.544;2023-07-29T04:56:04;99840.40;;;15.70
71205;BMP180;58935;54.498;18.544;2023-07-29T04:58:29;99841.00;;;15.80
71205;BMP180;58935;54.498;18.544;2023-07-29T05:00:55;99844.00;;;15.80
71205;BMP180;58935;54.498;18.544;2023-07-29T05:03:21;99849.80;;;15.90
71205;BMP180;58935;54.498;18.544;2023-07-29T05:05:46;99852.20;;;16.00
71205;BMP180;58935;54.498;18.544;2023-07-29T05:08:11;99849.40;;;16.00
71205;BMP180;58935;54.498;18.544;2023-07-29T05:10:37;99850.80;;;16.10
71205;BMP180;58935;54.498;18.544;2023-07-29T05:13:02;99847.60;;;16.14
71205;BMP180;58935;54.498;18.544;2023-07-29T05:15:28;99848.40;;;16.20
71205;BMP180;58935;54.498;18.544;2023-07-29T05:17:53;99848.80;;;16.30
71205;BMP180;58935;54.498;18.544;2023-07-29T05:20:18;99851.80;;;16.30
71205;BMP180;58935;54.498;18.544;2023-07-29T05:22:44;99850.60;;;16.40
71205;BMP180;58935;54.498;18.544;2023-07-29T05:25:09;99849.40;;;16.50
71205;BMP180;58935;54.498;18.544;2023-07-29T05:27:34;99850.00;;;16.52
71205;BMP180;58935;54.498;18.544;2023-07-29T05:30:00;99851.40;;;16.60
71205;BMP180;58935;54.498;18.544;2023-07-29T05:32:25;99854.60;;;16.70
71205;BMP180;58935;54.498;18.544;2023-07-29T05:34:50;99856.80;;;16.78
71205;BMP180;58935;54.498;18.544;2023-07-29T05:37:16;99857.80;;;16.82
71205;BMP180;58935;54.498;18.544;2023-07-29T05:39:41;99856.60;;;16.90
71205;BMP180;58935;54.498;18.544;2023-07-29T05:42:07;99853.00;;;17.02
71205;BMP180;58935;54.498;18.544;2023-07-29T05:44:33;99852.60;;;17.12
71205;BMP180;58935;54.498;18.544;2023-07-29T05:46:58;99855.40;;;17.22
71205;BMP180;58935;54.498;18.544;2023-07-29T05:49:24;99854.00;;;17.36
71205;BMP180;58935;54.498;18.544;2023-07-29T05:51:49;99853.00;;;17.50
71205;BMP180;58935;54.498;18.544;2023-07-29T05:54:18;99858.80;;;17.58
71205;BMP180;58935;54.498;18.544;2023-07-29T05:56:44;99864.00;;;17.60
71205;BMP180;58935;54.498;18.544;2023-07-29T05:59:09;99866.60;;;17.70
71205;BMP180;58935;54.498;18.544;2023-07-29T06:01:35;99867.60;;;17.80
71205;BMP180;58935;54.498;18.544;2023-07-29T06:04:00;99866.80;;;17.80
71205;BMP180;58935;54.498;18.544;2023-07-29T06:06:26;99869.20;;;17.90
71205;BMP180;58935;54.498;18.544;2023-07-29T06:08:52;99874.00;;;18.00
71205;BMP180;58935;54.498;18.544;2023-07-29T06:11:17;99879.00;;;18.00
71205;BMP180;58935;54.498;18.544;2023-07-29T06:13:42;99883.80;;;18.10
71205;BMP180;58935;54.498;18.544;2023-07-29T06:16:08;99886.20;;;18.20
71205;BMP180;58935;54.498;18.544;2023-07-29T06:18:33;99885.80;;;18.20
71205;BMP180;58935;54.498;18.544;2023-07-29T06:20:58;99886.00;;;18.30
71205;BMP180;58935;54.498;18.544;2023-07-29T06:23:24;99887.00;;;18.40
71205;BMP180;58935;54.498;18.544;2023-07-29T06:25:49;99882.60;;;18.40
71205;BMP180;58935;54.498;18.544;2023-07-29T06:28:14;99880.60;;;18.50
71205;BMP180;58935;54.498;18.544;2023-07-29T06:30:40;99887.20;;;18.60
71205;BMP180;58935;54.498;18.544;2023-07-29T06:33:05;99881.80;;;18.60
71205;BMP180;58935;54.498;18.544;2023-07-29T06:35:31;99889.20;;;18.70
71205;BMP180;58935;54.498;18.544;2023-07-29T06:37:57;99880.60;;;18.80
71205;BMP180;58935;54.498;18.544;2023-07-29T06:40:22;99883.20;;;18.90
71205;BMP180;58935;54.498;18.544;2023-07-29T06:42:47;99887.20;;;18.90
71205;BMP180;58935;54.498;18.544;2023-07-29T06:45:13;99888.00;;;18.94
71205;BMP180;58935;54.498;18.544;2023-07-29T06:47:38;99892.00;;;19.00
71205;BMP180;58935;54.498;18.544;2023-07-29T06:50:04;99892.80;;;19.00
71205;BMP180;58935;54.498;18.544;2023-07-29T06:52:30;99891.40;;;19.00
71205;BMP180;58935;54.498;18.544;2023-07-29T06:54:56;99885.00;;;19.10
71205;BMP180;58935;54.498;18.544;2023-07-29T06:57:21;99889.60;;;19.10
71205;BMP180;58935;54.498;18.544;2023-07-29T06:59:46;99884.00;;;19.20
71205;BMP180;58935;54.498;18.544;2023-07-29T07:02:12;99885.20;;;19.20
71205;BMP180;58935;54.498;18.544;2023-07-29T07:04:37;99878.80;;;19.30
71205;BMP180;58935;54.498;18.544;2023-07-29T07:07:03;99884.40;;;19.32
71205;BMP180;58935;54.498;18.544;2023-07-29T07:09:28;99881.40;;;19.40
71205;BMP180;58935;54.498;18.544;2023-07-29T07:11:53;99878.60;;;19.40
71205;BMP180;58935;54.498;18.544;2023-07-29T07:14:19;99881.60;;;19.50
71205;BMP180;58935;54.498;18.544;2023-07-29T07:16:44;99871.40;;;19.50
71205;BMP180;58935;54.498;18.544;2023-07-29T07:19:11;99872.00;;;19.60
71205;BMP180;58935;54.498;18.544;2023-07-29T07:21:36;99877.60;;;19.66
71205;BMP180;58935;54.498;18.544;2023-07-29T07:24:02;99880.00;;;19.70
71205;BMP180;58935;54.498;18.544;2023-07-29T07:26:27;99880.60;;;19.80
71205;BMP180;58935;54.498;18.544;2023-07-29T07:28:53;99879.00;;;19.82
71205;BMP180;58935;54.498;18.544;2023-07-29T07:31:18;99873.80;;;19.90
71205;BMP180;58935;54.498;18.544;2023-07-29T07:33:44;99879.20;;;19.94
71205;BMP180;58935;54.498;18.544;2023-07-29T07:36:10;99882.40;;;20.00
71205;BMP180;58935;54.498;18.544;2023-07-29T07:38:35;99876.60;;;20.10
71205;BMP180;58935;54.498;18.544;2023-07-29T07:41:00;99874.80;;;20.20
71205;BMP180;58935;54.498;18.544;2023-07-29T07:43:26;99873.80;;;20.20
71205;BMP180;58935;54.498;18.544;2023-07-29T07:45:57;99869.00;;;20.30
71205;BMP180;58935;54.498;18.544;2023-07-29T07:48:24;99875.20;;;20.40
71205;BMP180;58935;54.498;18.544;2023-07-29T07:50:49;99878.60;;;20.40
71205;BMP180;58935;54.498;18.544;2023-07-29T07:53:14;99874.40;;;20.50
71205;BMP180;58935;54.498;18.544;2023-07-29T07:55:40;99870.60;;;20.54
71205;BMP180;58935;54.498;18.544;2023-07-29T07:58:05;99868.00;;;20.60
71205;BMP180;58935;54.498;18.544;2023-07-29T08:00:30;99877.00;;;20.64
71205;BMP180;58935;54.498;18.544;2023-07-29T08:02:55;99871.00;;;20.70
71205;BMP180;58935;54.498;18.544;2023-07-29T08:05:21;99875.40;;;20.78
71205;BMP180;58935;54.498;18.544;2023-07-29T08:07:46;99874.20;;;20.80
71205;BMP180;58935;54.498;18.544;2023-07-29T08:10:11;99868.60;;;20.90
71205;BMP180;58935;54.498;18.544;2023-07-29T08:12:37;99867.00;;;20.96
71205;BMP180;58935;54.498;18.544;2023-07-29T08:15:02;99867.40;;;21.00
71205;BMP180;58935;54.498;18.544;2023-07-29T08:17:28;99864.20;;;21.10
71205;BMP180;58935;54.498;18.544;2023-07-29T08:19:53;99867.40;;;21.14
71205;BMP180;58935;54.498;18.544;2023-07-29T08:22:18;99864.00;;;21.20
71205;BMP180;58935;54.498;18.544;2023-07-29T08:24:45;99858.60;;;21.30
71205;BMP180;58935;54.498;18.544;2023-07-29T08:27:11;99855.60;;;21.30
71205;BMP180;58935;54.498;18.544;2023-07-29T08:29:36;99856.60;;;21.40
71205;BMP180;58935;54.498;18.544;2023-07-29T08:32:01;99853.40;;;21.40
71205;BMP180;58935;54.498;18.544;2023-07-29T08:34:27;99844.40;;;21.46
71205;BMP180;58935;54.498;18.544;2023-07-29T08:36:52;99848.60;;;21.50
71205;BMP180;58935;54.498;18.544;2023-07-29T08:39:17;99856.80;;;21.50
71205;BMP180;58935;54.498;18.544;2023-07-29T08:41:57;99854.00;;;21.50
71205;BMP180;58935;54.498;18.544;2023-07-29T08:44:30;99849.20;;;21.54
71205;BMP180;58935;54.498;18.544;2023-07-29T08:46:56;99846.60;;;21.60
71205;BMP180;58935;54.498;18.544;2023-07-29T08:49:23;99852.60;;;21.60
71205;BMP180;58935;54.498;18.544;2023-07-29T08:51:50;99850.20;;;21.70
71205;BMP180;58935;54.498;18.544;2023-07-29T08:54:16;99851.00;;;21.70
71205;BMP180;58935;54.498;18.544;2023-07-29T08:56:43;99848.80;;;21.80
71205;BMP180;58935;54.498;18.544;2023-07-29T08:59:10;99850.20;;;21.88
71205;BMP180;58935;54.498;18.544;2023-07-29T09:01:41;99848.40;;;21.90
71205;BMP180;58935;54.498;18.544;2023-07-29T09:04:07;99849.20;;;21.90
71205;BMP180;58935;54.498;18.544;2023-07-29T09:06:34;99845.40;;;21.90
71205;BMP180;58935;54.498;18.544;2023-07-29T09:09:01;99848.20;;;21.96
71205;BMP180;58935;54.498;18.544;2023-07-29T09:11:27;99849.80;;;22.00
71205;BMP180;58935;54.498;18.544;2023-07-29T09:13:53;99854.80;;;22.00
71205;BMP180;58935;54.498;18.544;2023-07-29T09:16:21;99853.40;;;22.06
71205;BMP180;58935;54.498;18.544;2023-07-29T09:18:51;99853.00;;;22.10
71205;BMP180;58935;54.498;18.544;2023-07-29T09:21:24;99851.80;;;22.10
71205;BMP180;58935;54.498;18.544;2023-07-29T09:23:52;99848.20;;;22.20
71205;BMP180;58935;54.498;18.544;2023-07-29T09:26:26;99846.00;;;22.20
71205;BMP180;58935;54.498;18.544;2023-07-29T09:28:56;99840.60;;;22.22
71205;BMP180;58935;54.498;18.544;2023-07-29T09:31:24;99842.20;;;22.30
71205;BMP180;58935;54.498;18.544;2023-07-29T09:33:50;99848.00;;;22.40
71205;BMP180;58935;54.498;18.544;2023-07-29T09:36:21;99844.20;;;22.40
71205;BMP180;58935;54.498;18.544;2023-07-29T09:38:46;99848.00;;;22.40
71205;BMP180;58935;54.498;18.544;2023-07-29T09:41:13;99852.60;;;22.46
71205;BMP180;58935;54.498;18.544;2023-07-29T09:43:39;99849.80;;;22.50
71205;BMP180;58935;54.498;18.544;2023-07-29T09:46:05;99851.80;;;22.52
71205;BMP180;58935;54.498;18.544;2023-07-29T09:48:37;99845.20;;;22.60
71205;BMP180;58935;54.498;18.544;2023-07-29T09:51:15;99841.00;;;22.60
71205;BMP180;58935;54.498;18.544;2023-07-29T09:53:46;99847.00;;;22.60
71205;BMP180;58935;54.498;18.544;2023-07-29T09:56:14;99845.40;;;22.70
71205;BMP180;58935;54.498;18.544;2023-07-29T09:58:42;99838.40;;;22.70
71205;BMP180;58935;54.498;18.544;2023-07-29T10:01:08;99838.80;;;22.80
71205;BMP180;58935;54.498;18.544;2023-07-29T10:03:36;99835.60;;;22.80
71205;BMP180;58935;54.498;18.544;2023-07-29T10:06:03;99841.40;;;22.80
71205;BMP180;58935;54.498;18.544;2023-07-29T10:08:30;99840.60;;;22.90
71205;BMP180;58935;54.498;18.544;2023-07-29T10:10:59;99841.00;;;22.96
71205;BMP180;58935;54.498;18.544;2023-07-29T10:13:26;99838.40;;;23.00
71205;BMP180;58935;54.498;18.544;2023-07-29T10:15:54;99839.00;;;23.10
71205;BMP180;58935;54.498;18.544;2023-07-29T10:18:23;99841.20;;;23.14
71205;BMP180;58935;54.498;18.544;2023-07-29T10:20:54;99837.40;;;23.20
71205;BMP180;58935;54.498;18.544;2023-07-29T10:23:22;99834.40;;;23.30
71205;BMP180;58935;54.498;18.544;2023-07-29T10:25:58;99825.40;;;23.40
71205;BMP180;58935;54.498;18.544;2023-07-29T10:28:30;99829.00;;;23.40
71205;BMP180;58935;54.498;18.544;2023-07-29T10:30:57;99826.00;;;23.50
71205;BMP180;58935;54.498;18.544;2023-07-29T10:33:23;99826.00;;;23.52
71205;BMP180;58935;54.498;18.544;2023-07-29T10:35:49;99822.40;;;23.60
71205;BMP180;58935;54.498;18.544;2023-07-29T10:38:16;99821.00;;;23.60
71205;BMP180;58935;54.498;18.544;2023-07-29T10:40:54;99821.40;;;23.70
71205;BMP180;58935;54.498;18.544;2023-07-29T10:43:33;99824.00;;;23.80
71205;BMP180;58935;54.498;18.544;2023-07-29T10:46:16;99823.00;;;23.90
71205;BMP180;58935;54.498;18.544;2023-07-29T10:48:54;99824.40;;;24.00
71205;BMP180;58935;54.498;18.544;2023-07-29T10:51:36;99828.60;;;24.10
71205;BMP180;58935;54.498;18.544;2023-07-29T10:54:14;99827.80;;;24.20
71205;BMP180;58935;54.498;18.544;2023-07-29T10:56:48;99819.20;;;24.30
71205;BMP180;58935;54.498;18.544;2023-07-29T10:59:33;99814.00;;;24.40
71205;BMP180;58935;54.498;18.544;2023-07-29T11:02:01;99815.20;;;24.50
71205;BMP180;58935;54.498;18.544;2023-07-29T11:04:29;99811.20;;;24.60
71205;BMP180;58935;54.498;18.544;2023-07-29T11:07:24;99813.60;;;24.80
71205;BMP180;58935;54.498;18.544;2023-07-29T11:10:01;99812.80;;;24.82
71205;BMP180;58935;54.498;18.544;2023-07-29T11:12:51;99808.80;;;24.90
71205;BMP180;58935;54.498;18.544;2023-07-29T11:15:29;99803.00;;;25.00
71205;BMP180;58935;54.498;18.544;2023-07-29T11:17:58;99806.20;;;25.10
71205;BMP180;58935;54.498;18.544;2023-07-29T11:20:27;99806.40;;;25.12
71205;BMP180;58935;54.498;18.544;2023-07-29T11:22:54;99799.40;;;25.20
71205;BMP180;58935;54.498;18.544;2023-07-29T11:25:23;99795.20;;;25.30
71205;BMP180;58935;54.498;18.544;2023-07-29T11:27:52;99793.00;;;25.38
71205;BMP180;58935;54.498;18.544;2023-07-29T11:30:19;99793.40;;;25.46
71205;BMP180;58935;54.498;18.544;2023-07-29T11:32:46;99796.40;;;25.60
71205;BMP180;58935;54.498;18.544;2023-07-29T11:35:18;99793.20;;;25.66
71205;BMP180;58935;54.498;18.544;2023-07-29T11:37:49;99793.80;;;25.70
71205;BMP180;58935;54.498;18.544;2023-07-29T11:40:18;99795.40;;;25.78
71205;BMP180;58935;54.498;18.544;2023-07-29T11:42:46;99790.00;;;25.80
71205;BMP180;58935;54.498;18.544;2023-07-29T11:45:13;99783.60;;;25.90
71205;BMP180;58935;54.498;18.544;2023-07-29T11:47:39;99793.60;;;26.00
71205;BMP180;58935;54.498;18.544;2023-07-29T11:50:08;99795.60;;;26.06
71205;BMP180;58935;54.498;18.544;2023-07-29T11:52:36;99786.00;;;26.10
71205;BMP180;58935;54.498;18.544;2023-07-29T11:55:04;99786.20;;;26.16
71205;BMP180;58935;54.498;18.544;2023-07-29T11:57:31;99792.80;;;26.10
71205;BMP180;58935;54.498;18.544;2023-07-29T11:59:57;99788.60;;;26.10
71205;BMP180;58935;54.498;18.544;2023-07-29T12:02:24;99785.80;;;26.10
71205;BMP180;58935;54.498;18.544;2023-07-29T12:04:51;99773.40;;;26.20
71205;BMP180;58935;54.498;18.544;2023-07-29T12:07:18;99767.80;;;26.30
71205;BMP180;58935;54.498;18.544;2023-07-29T12:09:46;99772.60;;;26.22
71205;BMP180;58935;54.498;18.544;2023-07-29T12:12:11;99772.60;;;26.20
71205;BMP180;58935;54.498;18.544;2023-07-29T12:14:37;99764.40;;;26.28
71205;BMP180;58935;54.498;18.544;2023-07-29T12:17:05;99764.00;;;26.40
71205;BMP180;58935;54.498;18.544;2023-07-29T12:19:33;99764.40;;;26.50
71205;BMP180;58935;54.498;18.544;2023-07-29T12:22:01;99757.40;;;26.60
71205;BMP180;58935;54.498;18.544;2023-07-29T12:24:27;99749.20;;;26.66
71205;BMP180;58935;54.498;18.544;2023-07-29T12:26:52;99743.80;;;26.70
71205;BMP180;58935;54.498;18.544;2023-07-29T12:29:19;99741.40;;;26.80
71205;BMP180;58935;54.498;18.544;2023-07-29T12:31:46;99739.80;;;26.80
71205;BMP180;58935;54.498;18.544;2023-07-29T12:34:25;99736.00;;;26.82
71205;BMP180;58935;54.498;18.544;2023-07-29T12:36:51;99730.80;;;26.90
71205;BMP180;58935;54.498;18.544;2023-07-29T12:39:23;99743.60;;;26.90
71205;BMP180;58935;54.498;18.544;2023-07-29T12:41:50;99744.00;;;26.80
71205;BMP180;58935;54.498;18.544;2023-07-29T12:44:16;99750.20;;;26.78
71205;BMP180;58935;54.498;18.544;2023-07-29T12:46:42;99743.80;;;26.70
71205;BMP180;58935;54.498;18.544;2023-07-29T12:49:08;99741.00;;;26.70
71205;BMP180;58935;54.498;18.544;2023-07-29T12:51:34;99745.40;;;26.80
71205;BMP180;58935;54.498;18.544;2023-07-29T12:54:01;99736.80;;;26.80
71205;BMP180;58935;54.498;18.544;2023-07-29T12:56:26;99733.40;;;26.70
71205;BMP180;58935;54.498;18.544;2023-07-29T12:58:52;99733.40;;;26.62
71205;BMP180;58935;54.498;18.544;2023-07-29T13:01:17;99736.80;;;26.70
71205;BMP180;58935;54.498;18.544;2023-07-29T13:03:44;99732.80;;;26.80
71205;BMP180;58935;54.498;18.544;2023-07-29T13:06:10;99728.00;;;26.80
71205;BMP180;58935;54.498;18.544;2023-07-29T13:08:35;99730.20;;;26.62
71205;BMP180;58935;54.498;18.544;2023-07-29T13:11:00;99723.80;;;26.50
71205;BMP180;58935;54.498;18.544;2023-07-29T13:13:26;99734.20;;;26.40
71205;BMP180;58935;54.498;18.544;2023-07-29T13:15:51;99730.80;;;26.30
71205;BMP180;58935;54.498;18.544;2023-07-29T13:18:17;99735.20;;;26.34
71205;BMP180;58935;54.498;18.544;2023-07-29T13:20:43;99739.40;;;26.42
71205;BMP180;58935;54.498;18.544;2023-07-29T13:23:08;99733.20;;;26.50
71205;BMP180;58935;54.498;18.544;2023-07-29T13:25:33;99728.60;;;26.60
71205;BMP180;58935;54.498;18.544;2023-07-29T13:27:59;99730.60;;;26.70
71205;BMP180;58935;54.498;18.544;2023-07-29T13:30:24;99729.20;;;26.80
71205;BMP180;58935;54.498;18.544;2023-07-29T13:32:49;99724.80;;;26.72
71205;BMP180;58935;54.498;18.544;2023-07-29T13:35:15;99729.80;;;26.70
71205;BMP180;58935;54.498;18.544;2023-07-29T13:37:40;99723.60;;;26.60
71205;BMP180;58935;54.498;18.544;2023-07-29T13:40:06;99727.60;;;26.64
71205;BMP180;58935;54.498;18.544;2023-07-29T13:42:32;99735.00;;;26.60
71205;BMP180;58935;54.498;18.544;2023-07-29T13:44:57;99735.60;;;26.60
71205;BMP180;58935;54.498;18.544;2023-07-29T13:47:22;99732.40;;;26.50
71205;BMP180;58935;54.498;18.544;2023-07-29T13:49:47;99733.60;;;26.40
71205;BMP180;58935;54.498;18.544;2023-07-29T13:52:14;99731.00;;;26.40
71205;BMP180;58935;54.498;18.544;2023-07-29T13:54:39;99723.20;;;26.30
71205;BMP180;58935;54.498;18.544;2023-07-29T13:57:05;99719.60;;;26.20
71205;BMP180;58935;54.498;18.544;2023-07-29T13:59:32;99721.60;;;26.10